Time;durP1;ratioP1;P1;durP2;ratioP2;P2;SDS_P1;SDS_P2;PMS_P1;PMS_P2;Temp;Humidity;BMP_temperature;BMP_pressure;BME280_temperature;BME280_humidity;BME280_pressure;Samples;Min_cycle;Max_cycle;Signal;HPM_P1;HPM_P2
2020/12/28 00:00:57;;;;;;;1.30;1.20;;;;;;;1.98;88.54;96583.69;5107706;28;20880;-74
2020/12/28 00:03:24;;;;;;;1.20;1.10;;;;;;;1.96;88.69;96577.78;5118507;28;20482;-74
2020/12/28 00:05:50;;;;;;;1.50;1.40;;;;;;;1.91;89.08;96583.59;5127826;28;20469;-75
2020/12/28 00:08:16;;;;;;;1.10;1.03;;;;;;;1.96;88.69;96577.78;5118959;28;20446;-75
2020/12/28 00:10:42;;;;;;;1.23;1.17;;;;;;;1.97;88.49;96574.97;5106908;28;20462;-77
2020/12/28 00:13:10;;;;;;;0.90;0.90;;;;;;;1.99;88.61;96570.34;5114862;28;20484;-75
2020/12/28 00:15:36;;;;;;;1.30;1.20;;;;;;;1.96;89.04;96583.03;5126357;28;20465;-75
2020/12/28 00:18:02;;;;;;;1.10;1.10;;;;;;;1.94;89.31;96590.31;5107878;28;20491;-75
2020/12/28 00:20:30;;;;;;;0.97;0.97;;;;;;;1.93;89.23;96578.97;5107018;28;20469;-75
2020/12/28 00:22:57;;;;;;;1.07;1.00;;;;;;;1.91;89.22;96586.22;5107827;28;20471;-75
2020/12/28 00:25:24;;;;;;;1.93;1.73;;;;;;;1.88;89.93;96587.38;5107172;28;20439;-77
2020/12/28 00:27:51;;;;;;;1.20;1.10;;;;;;;1.87;89.66;96582.28;5125067;28;20442;-75
2020/12/28 00:30:18;;;;;;;1.30;1.30;;;;;;;1.91;89.48;96594.13;5126265;28;20453;-75
2020/12/28 00:32:45;;;;;;;1.27;1.17;;;;;;;1.90;89.77;96592.47;5108228;28;20474;-75
2020/12/28 00:35:11;;;;;;;1.10;0.97;;;;;;;1.92;89.53;96602.84;5106676;28;20435;-75
2020/12/28 00:37:37;;;;;;;1.13;1.13;;;;;;;1.92;89.32;96606.28;5107936;28;20481;-75
2020/12/28 00:40:04;;;;;;;1.07;1.07;;;;;;;1.96;89.38;96598.84;5109320;28;20446;-73
2020/12/28 00:42:31;;;;;;;1.30;1.20;;;;;;;1.93;89.10;96591.28;5106954;28;20540;-75
2020/12/28 00:44:58;;;;;;;1.30;1.20;;;;;;;1.91;89.05;96585.38;5108638;28;20443;-75
2020/12/28 00:47:25;;;;;;;0.90;0.90;;;;;;;1.90;89.56;96573.22;5106256;28;20463;-75
2020/12/28 00:49:51;;;;;;;1.43;1.33;;;;;;;1.90;90.00;96581.94;5109040;28;20462;-75
2020/12/28 00:52:17;;;;;;;1.10;1.00;;;;;;;1.93;88.92;96580.75;5105170;28;20467;-75
2020/12/28 00:54:43;;;;;;;0.83;0.83;;;;;;;1.86;89.74;96576.22;5115401;28;20445;-75
2020/12/28 00:57:09;;;;;;;1.33;1.23;;;;;;;1.85;90.07;96584.28;5126839;28;20462;-74
2020/12/28 00:59:36;;;;;;;1.50;1.40;;;;;;;1.81;90.57;96585.66;5116173;28;20447;-74
2020/12/28 01:02:02;;;;;;;1.50;1.40;;;;;;;1.91;89.57;96580.97;5105973;28;20497;-75
2020/12/28 01:04:29;;;;;;;1.00;1.00;;;;;;;1.89;89.42;96577.66;5116347;28;20450;-75
2020/12/28 01:06:55;;;;;;;1.40;1.30;;;;;;;1.93;89.62;96578.97;5126887;28;20458;-75
2020/12/28 01:09:21;;;;;;;1.03;1.00;;;;;;;1.97;88.77;96587.34;5117656;28;20586;-75
2020/12/28 01:11:47;;;;;;;2.13;1.50;;;;;;;1.97;88.97;96579.44;5126657;28;20992;-75
2020/12/28 01:14:14;;;;;;;1.53;1.43;;;;;;;1.91;89.45;96583.59;5119305;28;20475;-74
2020/12/28 01:16:43;;;;;;;1.33;1.23;;;;;;;1.94;89.18;96579.78;5106062;28;20624;-75
2020/12/28 01:19:09;;;;;;;1.03;1.00;;;;;;;1.97;88.85;96584.69;5107174;28;20447;-74
2020/12/28 01:21:36;;;;;;;1.10;1.10;;;;;;;2.00;88.72;96594.88;5106086;28;20849;-74
2020/12/28 01:24:02;;;;;;;1.57;1.47;;;;;;;1.93;89.36;96601.84;5106376;28;20513;-74
2020/12/28 01:26:29;;;;;;;1.37;1.27;;;;;;;1.90;89.55;96612.75;5122718;28;20509;-74
2020/12/28 01:28:55;;;;;;;1.20;1.20;;;;;;;1.93;89.00;96597.41;5120258;28;20454;-74
2020/12/28 01:31:21;;;;;;;0.93;0.90;;;;;;;1.92;88.82;96605.47;5106016;28;20486;-74
2020/12/28 01:33:47;;;;;;;1.47;1.37;;;;;;;1.97;88.48;96589.97;5107579;28;20504;-74
2020/12/28 01:36:13;;;;;;;1.40;1.30;;;;;;;1.98;87.16;96586.31;5105843;28;20949;-74
2020/12/28 01:38:40;;;;;;;0.93;0.83;;;;;;;1.94;88.46;96588.50;5112462;28;20470;-74
2020/12/28 01:41:06;;;;;;;1.23;1.13;;;;;;;2.06;86.79;96591.53;5104661;28;20470;-74
2020/12/28 01:43:33;;;;;;;1.30;1.20;;;;;;;1.99;87.38;96583.50;5122016;28;20792;-74
2020/12/28 01:46:00;;;;;;;0.93;0.83;;;;;;;1.96;88.45;96585.69;5123841;28;20475;-74
2020/12/28 01:48:28;;;;;;;1.00;1.00;;;;;;;1.96;87.09;96585.69;5106256;28;20447;-74
2020/12/28 01:50:55;;;;;;;1.10;1.00;;;;;;;1.98;87.50;96576.63;5105962;28;20467;-74
2020/12/28 01:53:21;;;;;;;0.97;0.90;;;;;;;1.94;88.30;96574.50;5117240;28;21030;-74
2020/12/28 01:55:49;;;;;;;1.43;1.00;;;;;;;1.94;87.81;96566.59;5105509;28;20486;-74
2020/12/28 01:58:16;;;;;;;0.90;0.90;;;;;;;1.92;88.33;96571.22;5084917;28;20451;-73
2020/12/28 02:00:42;;;;;;;1.10;1.00;;;;;;;1.93;88.64;96563.16;5110768;28;20466;-74
2020/12/28 02:03:08;;;;;;;1.03;1.03;;;;;;;1.92;87.44;96561.50;5085913;28;20965;-74
2020/12/28 02:05:35;;;;;;;0.80;0.80;;;;;;;1.94;87.88;96567.41;5107225;28;20489;-73
2020/12/28 02:08:01;;;;;;;0.70;0.70;;;;;;;1.88;88.72;96558.41;5119888;28;20443;-74
2020/12/28 02:10:27;;;;;;;0.77;0.77;;;;;;;1.90;87.95;96555.59;5114594;28;20500;-73
2020/12/28 02:12:54;;;;;;;0.93;0.93;;;;;;;1.85;88.83;96571.94;5125265;28;20474;-73
2020/12/28 02:15:20;;;;;;;1.00;0.87;;;;;;;1.87;88.20;96585.75;5119919;28;20492;-74
2020/12/28 02:17:47;;;;;;;0.83;0.83;;;;;;;1.87;88.40;96592.81;5108163;28;20451;-74
2020/12/28 02:20:13;;;;;;;0.93;0.93;;;;;;;1.95;87.27;96591.97;5115364;28;20460;-74
2020/12/28 02:22:40;;;;;;;0.80;0.80;;;;;;;1.98;86.91;96594.22;5122919;28;20829;-73
2020/12/28 02:25:06;;;;;;;1.10;1.10;;;;;;;1.94;87.85;96595.59;5118063;28;20453;-73
2020/12/28 02:27:32;;;;;;;0.97;0.90;;;;;;;2.00;86.97;96593.06;5123758;28;20482;-73
2020/12/28 02:29:59;;;;;;;0.77;0.77;;;;;;;2.04;86.68;96596.16;5105473;28;20447;-74
2020/12/28 02:32:25;;;;;;;0.93;0.83;;;;;;;2.04;87.13;96583.81;5105262;28;20460;-73
2020/12/28 02:34:51;;;;;;;1.47;1.07;;;;;;;2.02;86.52;96590.25;5125591;28;20465;-73
2020/12/28 02:37:17;;;;;;;0.83;0.83;;;;;;;2.09;85.33;96583.28;5122961;28;20470;-73
2020/12/28 02:39:44;;;;;;;0.83;0.83;;;;;;;2.08;86.50;96571.09;5104909;28;20463;-73
2020/12/28 02:42:10;;;;;;;0.80;0.80;;;;;;;2.06;86.45;96576.53;5105482;28;20499;-73
2020/12/28 02:44:36;;;;;;;0.83;0.83;;;;;;;2.00;87.47;96569.34;5104454;28;20466;-73
2020/12/28 02:47:03;;;;;;;0.80;0.80;;;;;;;1.95;87.77;96568.25;5104906;28;20467;-73
2020/12/28 02:49:29;;;;;;;0.80;0.80;;;;;;;1.97;87.32;96568.88;5125799;28;20438;-73
2020/12/28 02:51:55;;;;;;;0.87;0.87;;;;;;;1.98;87.36;96559.97;5124290;28;20520;-73
2020/12/28 02:54:21;;;;;;;1.10;1.00;;;;;;;2.01;86.11;96551.72;5105302;28;20448;-73
2020/12/28 02:56:48;;;;;;;1.13;1.03;;;;;;;1.98;87.13;96560.81;5116309;28;20508;-73
2020/12/28 02:59:14;;;;;;;1.00;1.00;;;;;;;2.04;85.99;96551.38;5124576;28;20450;-73
2020/12/28 03:01:40;;;;;;;0.80;0.80;;;;;;;2.00;86.08;96556.19;5113567;28;20498;-73
2020/12/28 03:04:07;;;;;;;1.13;1.13;;;;;;;1.93;86.76;96554.41;5104765;28;20491;-73
2020/12/28 03:06:33;;;;;;;0.80;0.80;;;;;;;1.85;87.26;96561.41;5112176;28;20485;-73
2020/12/28 03:08:59;;;;;;;1.03;0.93;;;;;;;1.85;87.70;96563.22;5110415;28;20496;-73
2020/12/28 03:11:25;;;;;;;0.90;0.90;;;;;;;1.84;88.21;96554.50;5115283;28;20481;-73
2020/12/28 03:13:52;;;;;;;0.80;0.80;;;;;;;1.91;87.06;96551.16;5123924;28;20469;-73
2020/12/28 03:16:18;;;;;;;1.00;0.93;;;;;;;1.87;87.36;96555.94;5117065;28;20502;-73
2020/12/28 03:18:45;;;;;;;1.23;1.13;;;;;;;1.78;87.87;96557.03;5104930;28;20454;-73
2020/12/28 03:21:11;;;;;;;1.00;1.00;;;;;;;1.78;87.61;96551.75;5111688;28;20498;-73
2020/12/28 03:23:37;;;;;;;0.97;0.97;;;;;;;1.80;87.93;96553.19;5114646;28;20514;-73
2020/12/28 03:26:03;;;;;;;4.33;0.90;;;;;;;1.74;88.16;96543.38;5103742;28;20832;-73
2020/12/28 03:28:29;;;;;;;0.60;0.60;;;;;;;1.72;87.96;96542.75;5104138;28;20482;-73
2020/12/28 03:30:56;;;;;;;0.97;0.90;;;;;;;1.72;88.16;96550.66;5083544;28;20472;-74
2020/12/28 03:33:22;;;;;;;0.90;0.90;;;;;;;1.60;88.80;96544.16;5084224;28;20420;-73
2020/12/28 03:35:49;;;;;;;1.27;1.17;;;;;;;1.64;88.43;96545.44;5102338;28;20757;-73
2020/12/28 03:38:15;;;;;;;0.90;0.90;;;;;;;1.63;88.41;96549.88;5105301;28;20885;-73
2020/12/28 03:40:41;;;;;;;1.07;0.97;;;;;;;1.63;88.85;96560.44;5103105;28;20502;-73
2020/12/28 03:43:07;;;;;;;1.00;0.90;;;;;;;1.75;88.11;96550.28;5103953;28;20907;-73
2020/12/28 03:45:33;;;;;;;0.80;0.80;;;;;;;1.79;87.90;96558.63;5122948;28;20495;-73
2020/12/28 03:48:00;;;;;;;1.10;1.00;;;;;;;1.85;87.40;96573.75;5125621;28;20507;-73
2020/12/28 03:50:26;;;;;;;1.17;1.00;;;;;;;1.79;88.15;96574.44;5105127;28;20466;-73
2020/12/28 03:52:52;;;;;;;1.10;1.00;;;;;;;1.74;88.77;96575.00;5110511;28;20471;-73
2020/12/28 03:55:18;;;;;;;1.27;1.10;;;;;;;1.80;88.65;96578.72;5102921;28;20486;-72
2020/12/28 03:57:45;;;;;;;1.30;1.20;;;;;;;1.86;87.88;96578.03;5114305;28;20596;-71
2020/12/28 04:00:11;;;;;;;0.97;0.97;;;;;;;1.90;87.69;96581.13;5122848;28;20478;-73
2020/12/28 04:02:38;;;;;;;0.90;0.90;;;;;;;1.88;87.39;96579.47;5116431;28;20707;-72
2020/12/28 04:05:05;;;;;;;0.93;0.93;;;;;;;1.88;88.21;96578.66;5123223;28;20449;-71
2020/12/28 04:07:31;;;;;;;1.20;1.10;;;;;;;1.88;87.95;96573.41;5113443;28;20470;-72
2020/12/28 04:09:58;;;;;;;1.03;0.97;;;;;;;1.93;87.53;96570.22;5104663;28;20423;-73
2020/12/28 04:12:24;;;;;;;1.20;1.10;;;;;;;1.96;87.46;96575.16;5109352;28;20509;-72
2020/12/28 04:14:50;;;;;;;1.10;1.00;;;;;;;1.94;87.39;96575.31;5103327;28;20475;-72
2020/12/28 04:17:16;;;;;;;1.30;1.20;;;;;;;1.98;87.09;96567.88;5103085;28;20478;-73
2020/12/28 04:19:42;;;;;;;0.90;0.90;;;;;;;2.03;87.30;96558.47;5104144;28;20446;-72
2020/12/28 04:22:09;;;;;;;0.87;0.87;;;;;;;1.98;87.85;96560.81;5103404;28;20502;-73
2020/12/28 04:24:36;;;;;;;0.77;0.77;;;;;;;1.94;87.72;96563.97;5103536;28;20864;-73
2020/12/28 04:27:02;;;;;;;0.90;0.90;;;;;;;2.00;88.18;96561.44;5103936;28;20459;-73
2020/12/28 04:29:28;;;;;;;1.17;1.07;;;;;;;1.94;88.41;96559.50;5107654;28;20459;-73
2020/12/28 04:31:54;;;;;;;1.17;1.00;;;;;;;2.02;87.93;96561.28;5106801;28;20469;-73
2020/12/28 04:34:20;;;;;;;1.50;1.40;;;;;;;1.97;88.53;96568.88;5107253;28;20482;-72
2020/12/28 04:36:46;;;;;;;0.97;0.90;;;;;;;1.98;88.41;96570.50;5106784;28;20471;-73
2020/12/28 04:39:13;;;;;;;1.00;1.00;;;;;;;2.02;88.25;96571.81;5107287;28;20938;-72
2020/12/28 04:41:39;;;;;;;1.00;0.93;;;;;;;2.02;87.99;96571.81;5106147;28;20479;-73
2020/12/28 04:44:06;;;;;;;1.00;1.00;;;;;;;1.95;88.37;96568.25;5106785;28;20510;-72
2020/12/28 04:46:32;;;;;;;0.90;0.90;;;;;;;1.99;88.11;96572.97;5106422;28;20996;-72
2020/12/28 04:48:58;;;;;;;1.10;1.07;;;;;;;2.00;88.49;96571.19;5107371;28;20501;-72
2020/12/28 04:51:25;;;;;;;1.10;0.90;;;;;;;2.11;87.26;96573.38;5106405;28;20486;-72
2020/12/28 04:53:52;;;;;;;2.80;0.90;;;;;;;2.15;87.34;96573.84;5107520;28;20479;-72
2020/12/28 04:56:19;;;;;;;0.80;0.80;;;;;;;2.21;87.13;96583.69;5106119;28;20472;-74
2020/12/28 04:58:45;;;;;;;0.93;0.93;;;;;;;2.15;87.08;96577.28;5106914;28;20451;-73
2020/12/28 05:01:11;;;;;;;1.23;0.73;;;;;;;2.27;86.22;96572.41;5106010;28;20474;-73
2020/12/28 05:03:38;;;;;;;0.90;0.90;;;;;;;2.26;86.62;96578.69;5107113;28;20486;-72
2020/12/28 05:06:04;;;;;;;0.80;0.80;;;;;;;2.22;86.73;96575.59;5105876;28;20501;-72
2020/12/28 05:08:30;;;;;;;1.77;1.30;;;;;;;2.34;87.19;96562.78;5106654;28;20475;-72
2020/12/28 05:11:06;;;;;;;0.90;0.90;;;;;;;2.23;86.80;96561.41;5100742;28;20503;-72
2020/12/28 05:13:33;;;;;;;0.60;0.60;;;;;;;2.25;86.71;96563.88;5101266;28;20466;-72
2020/12/28 05:15:59;;;;;;;0.87;0.87;;;;;;;2.25;86.63;96572.59;5104581;28;20475;-72
2020/12/28 05:18:25;;;;;;;0.80;0.80;;;;;;;2.37;85.98;96572.16;5106270;28;20502;-72
2020/12/28 05:20:52;;;;;;;0.90;0.90;;;;;;;2.32;86.04;96570.06;5103778;28;20466;-72
2020/12/28 05:23:18;;;;;;;0.97;0.97;;;;;;;2.32;85.83;96563.97;5094148;28;20499;-72
2020/12/28 05:25:46;;;;;;;1.03;0.93;;;;;;;2.49;85.65;96565.44;5104738;28;20830;-72
2020/12/28 05:28:15;;;;;;;1.00;1.00;;;;;;;2.38;85.83;96558.81;5104142;28;20469;-72
2020/12/28 05:30:44;;;;;;;1.10;1.10;;;;;;;2.36;85.84;96567.88;5104481;28;20455;-72
2020/12/28 05:33:11;;;;;;;0.90;0.90;;;;;;;2.41;85.63;96569.00;5105785;28;20427;-72
2020/12/28 05:35:37;;;;;;;1.60;1.30;;;;;;;2.37;85.92;96557.16;5103027;28;20482;-72
2020/12/28 05:38:05;;;;;;;1.40;1.30;;;;;;;2.52;85.39;96558.97;5105256;28;20942;-72
2020/12/28 05:40:33;;;;;;;1.43;1.33;;;;;;;2.45;85.56;96572.09;5103451;28;20458;-72
2020/12/28 05:42:59;;;;;;;1.40;1.30;;;;;;;2.67;85.73;96574.81;5104065;28;20971;-72
2020/12/28 05:45:25;;;;;;;1.50;1.40;;;;;;;2.48;85.95;96565.63;5104215;28;20467;-72
2020/12/28 05:47:55;;;;;;;1.53;1.43;;;;;;;2.55;85.55;96564.75;5105948;28;20470;-72
2020/12/28 05:50:22;;;;;;;1.60;1.50;;;;;;;2.43;86.25;96566.16;5102469;28;20467;-72
2020/12/28 05:52:52;;;;;;;1.60;1.50;;;;;;;2.50;85.94;96564.47;5105439;28;20953;-73
2020/12/28 05:55:21;;;;;;;1.60;1.50;;;;;;;2.58;86.00;96572.25;5103581;28;20975;-72
2020/12/28 05:57:47;;;;;;;1.03;1.00;;;;;;;2.48;85.95;96578.81;5104858;28;20461;-72
2020/12/28 06:00:13;;;;;;;1.10;1.10;;;;;;;2.47;86.27;96582.47;5102425;28;20455;-72
2020/12/28 06:02:40;;;;;;;1.50;1.40;;;;;;;2.52;85.98;96580.91;5105365;28;20474;-72
2020/12/28 06:05:09;;;;;;;1.47;1.37;;;;;;;2.46;86.30;96589.53;5102813;28;20475;-72
2020/12/28 06:07:35;;;;;;;1.60;1.50;;;;;;;2.43;86.16;96587.25;5104994;28;20438;-72
2020/12/28 06:10:01;;;;;;;1.53;1.30;;;;;;;2.44;85.93;96600.25;5104328;28;20991;-72
2020/12/28 06:12:27;;;;;;;1.60;1.50;;;;;;;2.44;85.97;96596.81;5103629;28;20483;-72
2020/12/28 06:14:54;;;;;;;1.77;1.67;;;;;;;2.54;86.07;96592.09;5103698;28;20467;-72
2020/12/28 06:17:20;;;;;;;1.20;1.10;;;;;;;2.52;85.66;96593.25;5102879;28;20463;-72
2020/12/28 06:19:46;;;;;;;1.80;1.70;;;;;;;2.46;86.02;96602.72;5105156;28;20458;-72
2020/12/28 06:22:20;;;;;;;1.67;1.53;;;;;;;2.45;86.75;96609.00;5103642;28;20467;-72
2020/12/28 06:24:56;;;;;;;2.27;2.10;;;;;;;2.42;86.55;96617.25;5103672;28;20460;-72
2020/12/28 06:27:27;;;;;;;2.40;1.97;;;;;;;2.44;86.40;96620.53;5114610;28;20497;-72
2020/12/28 06:29:53;;;;;;;2.00;1.80;;;;;;;2.52;85.91;96620.47;5104154;28;20535;-72
2020/12/28 06:32:19;;;;;;;2.23;2.03;;;;;;;2.52;86.01;96636.28;5102493;28;20493;-71
2020/12/28 06:34:46;;;;;;;1.80;1.70;;;;;;;2.49;86.38;96635.81;5103950;28;20470;-71
2020/12/28 06:37:14;;;;;;;2.00;1.90;;;;;;;2.51;85.97;96634.63;5103439;28;20482;-73
2020/12/28 06:39:41;;;;;;;2.00;1.90;;;;;;;2.53;86.32;96629.19;5103637;28;20465;-71
2020/12/28 06:42:08;;;;;;;1.60;1.50;;;;;;;2.49;86.96;96636.63;5103119;28;20475;-72
2020/12/28 06:44:35;;;;;;;2.00;1.80;;;;;;;2.47;86.63;96628.09;5103465;28;21059;-71
2020/12/28 06:47:02;;;;;;;1.73;1.63;;;;;;;2.45;86.46;96628.25;5102641;28;20489;-71
2020/12/28 06:49:40;;;;;;;1.50;1.40;;;;;;;2.71;85.39;96629.69;5107598;28;20447;-73
2020/12/28 06:52:06;;;;;;;1.77;1.67;;;;;;;2.70;85.16;96614.03;5102830;28;20492;-73
2020/12/28 06:54:32;;;;;;;1.70;1.37;;;;;;;2.63;85.77;96619.19;5113830;28;20488;-73
2020/12/28 06:57:03;;;;;;;1.20;1.10;;;;;;;2.70;84.85;96622.75;5106832;28;20471;-74
2020/12/28 06:59:29;;;;;;;1.20;1.10;;;;;;;2.65;85.83;96627.75;5103914;28;20447;-73
2020/12/28 07:01:57;;;;;;;1.63;1.53;;;;;;;2.69;85.90;96620.28;5101612;28;20470;-73
2020/12/28 07:04:23;;;;;;;1.30;1.17;;;;;;;2.67;85.84;96628.38;5103631;28;20506;-73
2020/12/28 07:06:56;;;;;;;1.40;1.30;;;;;;;2.67;86.09;96630.22;5102832;28;20851;-73
2020/12/28 07:09:22;;;;;;;2.17;1.37;;;;;;;2.60;86.07;96625.66;5103096;28;20450;-73
2020/12/28 07:11:49;;;;;;;1.53;1.43;;;;;;;2.62;86.35;96623.66;5100259;28;20471;-73
2020/12/28 07:14:20;;;;;;;1.60;1.50;;;;;;;2.66;86.96;96628.56;5102805;28;20496;-73
2020/12/28 07:16:53;;;;;;;1.40;1.30;;;;;;;2.75;86.01;96632.78;5102319;28;20494;-71
2020/12/28 07:19:19;;;;;;;1.37;1.27;;;;;;;2.67;86.93;96643.41;5103131;28;20447;-71
2020/12/28 07:21:45;;;;;;;1.60;1.50;;;;;;;2.59;86.64;96639.03;5100807;28;20505;-70
2020/12/28 07:24:11;;;;;;;1.47;1.37;;;;;;;2.60;87.22;96630.94;5100083;28;20586;-70
2020/12/28 07:26:38;;;;;;;1.80;1.30;;;;;;;2.63;86.56;96635.03;5098748;28;20474;-71
2020/12/28 07:29:10;;;;;;;1.30;1.27;;;;;;;2.89;85.71;96631.94;5100473;28;20467;-73
2020/12/28 07:31:37;;;;;;;1.60;1.50;;;;;;;2.88;85.64;96640.03;5099899;28;20506;-71
2020/12/28 07:34:04;;;;;;;1.10;1.00;;;;;;;2.85;86.03;96637.75;5100193;28;20427;-70
2020/12/28 07:36:31;;;;;;;1.50;1.40;;;;;;;2.90;86.17;96646.78;5099901;28;20513;-72
2020/12/28 07:38:57;;;;;;;1.60;1.50;;;;;;;2.86;87.61;96655.25;5101149;28;20463;-71
2020/12/28 07:41:25;;;;;;;1.33;1.23;;;;;;;2.80;86.98;96654.16;5098710;28;20574;-70
2020/12/28 07:43:53;;;;;;;1.83;1.73;;;;;;;2.79;86.68;96670.97;5100808;28;20479;-69
2020/12/28 07:46:30;;;;;;;1.50;1.40;;;;;;;2.76;86.54;96679.22;5099311;28;20479;-71
2020/12/28 07:48:58;;;;;;;1.53;1.43;;;;;;;2.80;87.01;96683.97;5100331;28;20531;-70
2020/12/28 07:51:25;;;;;;;1.57;1.47;;;;;;;2.74;87.14;96683.88;5099016;28;20559;-71
2020/12/28 07:53:56;;;;;;;2.13;1.70;;;;;;;2.67;87.38;96693.50;5100901;28;20581;-72
2020/12/28 07:56:26;;;;;;;1.40;1.30;;;;;;;2.66;87.66;96691.84;5099190;28;20508;-72
2020/12/28 07:58:59;;;;;;;1.70;1.60;;;;;;;2.60;87.84;96690.75;5100780;28;20455;-73
2020/12/28 08:01:31;;;;;;;1.77;1.67;;;;;;;2.65;86.75;96701.59;5098787;28;20509;-72
2020/12/28 08:04:00;;;;;;;1.80;1.70;;;;;;;2.69;87.10;96702.88;5104866;28;20515;-72
2020/12/28 08:06:27;;;;;;;2.27;2.07;;;;;;;2.71;87.58;96708.81;5104056;28;20528;-72
2020/12/28 08:08:59;;;;;;;2.10;1.90;;;;;;;2.71;87.43;96705.31;5102176;28;21017;-72
2020/12/28 08:11:29;;;;;;;2.30;1.50;;;;;;;2.76;86.38;96717.00;5102250;28;20475;-74
2020/12/28 08:13:55;;;;;;;2.43;1.57;;;;;;;2.85;86.79;96712.47;5121743;28;20470;-73
2020/12/28 08:16:21;;;;;;;2.07;1.30;;;;;;;2.79;86.00;96708.72;5125598;27;20523;-73
2020/12/28 08:18:49;;;;;;;2.40;1.63;;;;;;;2.84;86.30;96713.47;5112914;28;20454;-73
2020/12/28 08:21:16;;;;;;;1.60;1.50;;;;;;;2.91;85.37;96708.28;5126158;28;20481;-73
2020/12/28 08:23:50;;;;;;;1.70;1.60;;;;;;;2.96;85.52;96711.22;5127846;28;20462;-73
2020/12/28 08:26:17;;;;;;;2.10;1.57;;;;;;;2.87;85.75;96718.38;5124868;28;20991;-73
2020/12/28 08:28:51;;;;;;;1.50;1.40;;;;;;;2.81;85.79;96717.28;5127428;28;20450;-73
2020/12/28 08:31:24;;;;;;;1.40;1.30;;;;;;;2.85;85.00;96717.75;5125806;28;20509;-73
2020/12/28 08:33:58;;;;;;;1.57;1.47;;;;;;;2.88;86.19;96722.66;5125985;28;20448;-73
2020/12/28 08:36:26;;;;;;;2.13;1.60;;;;;;;2.88;85.25;96717.38;5123874;28;20493;-73
2020/12/28 08:38:52;;;;;;;1.50;1.40;;;;;;;2.87;85.35;96726.28;5126182;28;20496;-72
2020/12/28 08:41:19;;;;;;;1.23;1.10;;;;;;;2.96;85.05;96727.03;5123550;28;20499;-70
2020/12/28 08:43:46;;;;;;;1.40;1.30;;;;;;;3.05;85.28;96725.94;5125323;28;20486;-70
2020/12/28 08:46:12;;;;;;;2.20;1.37;;;;;;;3.00;85.43;96725.66;5125192;28;20458;-70
2020/12/28 08:48:38;;;;;;;1.40;1.20;;;;;;;3.07;84.25;96733.69;5125521;28;20478;-73
2020/12/28 08:51:13;;;;;;;1.93;1.80;;;;;;;3.15;83.89;96734.44;5124135;28;20881;-70
2020/12/28 08:53:45;;;;;;;1.60;1.20;;;;;;;3.19;84.21;96734.88;5126261;28;20449;-71
2020/12/28 08:56:12;;;;;;;1.40;1.30;;;;;;;3.21;83.51;96738.16;5123837;28;20466;-73
2020/12/28 08:58:38;;;;;;;1.20;1.10;;;;;;;3.37;82.64;96735.38;5126007;28;20510;-72
2020/12/28 09:01:04;;;;;;;1.80;1.10;;;;;;;3.52;82.54;96737.19;5124988;28;20485;-73
2020/12/28 09:03:31;;;;;;;1.33;1.23;;;;;;;3.92;81.67;96745.63;5125534;28;20497;-72
2020/12/28 09:05:57;;;;;;;0.93;0.90;;;;;;;3.75;81.36;96743.19;5125095;28;20492;-71
2020/12/28 09:08:23;;;;;;;2.20;1.10;;;;;;;3.55;81.31;96755.31;5125761;28;20438;-73
2020/12/28 09:10:50;;;;;;;1.17;1.00;;;;;;;3.51;82.12;96756.69;5122258;28;21000;-73
2020/12/28 09:13:17;;;;;;;1.70;1.00;;;;;;;3.37;82.58;96764.41;5116805;28;20506;-76
2020/12/28 09:15:43;;;;;;;2.13;0.90;;;;;;;3.41;82.24;96761.41;5120960;27;20458;-77
2020/12/28 09:18:09;;;;;;;1.13;1.07;;;;;;;3.57;82.10;96753.31;5123257;28;20442;-69
2020/12/28 09:20:35;;;;;;;1.60;1.10;;;;;;;3.73;81.36;96754.94;5123206;28;20533;-72
2020/12/28 09:23:02;;;;;;;2.50;1.10;;;;;;;3.84;80.34;96753.66;5123992;28;20509;-72
2020/12/28 09:25:28;;;;;;;1.20;1.00;;;;;;;3.66;80.67;96765.41;5122550;28;20466;-72
2020/12/28 09:27:55;;;;;;;1.27;1.17;;;;;;;3.73;80.91;96752.28;5124646;28;20445;-84
2020/12/28 09:30:21;;;;;;;1.20;1.10;;;;;;;3.73;80.25;96761.06;5126411;27;20454;-79
2020/12/28 09:32:47;;;;;;;3.17;1.60;;;;;;;3.64;80.37;96754.22;5124380;28;20462;-78
2020/12/28 09:35:13;;;;;;;2.00;1.30;;;;;;;3.68;80.21;96759.94;5124445;28;20794;-78
2020/12/28 09:37:40;;;;;;;1.83;1.63;;;;;;;3.69;80.02;96751.03;5124831;28;20435;-77
2020/12/28 09:40:06;;;;;;;2.47;1.37;;;;;;;4.03;80.26;96763.66;5123318;27;20527;-78
2020/12/28 09:42:32;;;;;;;2.43;1.73;;;;;;;3.72;80.93;96762.03;5125689;28;20431;-77
2020/12/28 09:44:59;;;;;;;1.70;1.53;;;;;;;3.70;80.81;96763.25;5125106;28;20446;-76
2020/12/28 09:47:25;;;;;;;1.33;1.03;;;;;;;3.76;81.06;96763.31;5122810;28;20477;-78
2020/12/28 09:49:52;;;;;;;1.50;1.40;;;;;;;3.70;82.39;96757.97;5126707;28;20470;-79
2020/12/28 09:52:18;;;;;;;1.43;1.33;;;;;;;3.79;80.91;96750.75;5124484;28;20478;-78
2020/12/28 09:54:44;;;;;;;1.67;1.57;;;;;;;3.83;81.11;96749.38;5125085;28;20487;-79
2020/12/28 09:57:10;;;;;;;5.80;1.30;;;;;;;4.02;80.77;96745.34;5120016;28;20469;-76
2020/12/28 09:59:38;;;;;;;1.20;1.20;;;;;;;4.04;80.21;96738.84;5117134;28;20446;-76
2020/12/28 10:02:05;;;;;;;1.23;1.10;;;;;;;3.96;78.17;96749.53;5113239;28;20462;-78
2020/12/28 10:04:31;;;;;;;1.53;1.43;;;;;;;4.25;79.04;96743.38;5122351;28;20509;-74
2020/12/28 10:06:58;;;;;;;2.53;1.90;;;;;;;4.26;79.04;96730.97;5113349;28;20486;-76
2020/12/28 10:09:25;;;;;;;2.43;1.80;;;;;;;4.37;77.75;96727.81;5121507;28;20442;-75
2020/12/28 10:11:51;;;;;;;2.50;1.20;;;;;;;5.38;74.12;96722.34;5120464;28;20489;-75
2020/12/28 10:14:17;;;;;;;1.43;1.20;;;;;;;7.29;67.45;96713.41;5107626;28;20510;-77
2020/12/28 10:16:43;;;;;;;1.07;1.00;;;;;;;8.06;62.63;96705.59;5092816;28;20503;-75
2020/12/28 10:19:10;;;;;;;1.20;0.80;;;;;;;8.60;61.76;96714.13;5087035;28;20506;-76
2020/12/28 10:21:36;;;;;;;1.73;1.00;;;;;;;8.81;59.50;96717.47;5089998;28;20835;-76
2020/12/28 10:24:04;;;;;;;1.30;1.10;;;;;;;6.50;66.32;96717.69;5094745;28;20502;-77
2020/12/28 10:26:30;;;;;;;1.37;0.80;;;;;;;6.88;66.82;96735.69;5090475;28;20521;-75
2020/12/28 10:29:00;;;;;;;1.33;1.17;;;;;;;7.10;65.23;96735.47;5102337;28;20480;-76
2020/12/28 10:31:26;;;;;;;1.93;1.00;;;;;;;7.50;63.46;96727.47;5085814;28;20538;-77
2020/12/28 10:33:52;;;;;;;2.40;0.97;;;;;;;7.83;63.07;96726.53;5093022;28;20435;-75
2020/12/28 10:36:21;;;;;;;1.20;0.90;;;;;;;7.11;64.31;96732.63;5095842;28;20504;-77
2020/12/28 10:38:48;;;;;;;1.07;0.73;;;;;;;7.70;62.74;96730.06;5098010;28;20474;-76
2020/12/28 10:41:15;;;;;;;0.70;0.70;;;;;;;7.33;63.61;96732.41;5089994;28;20471;-75
2020/12/28 10:43:41;;;;;;;1.03;0.90;;;;;;;7.15;63.40;96733.03;5086486;28;20489;-74
2020/12/28 10:46:08;;;;;;;0.80;0.57;;;;;;;7.12;62.57;96713.00;5087993;28;20962;-75
2020/12/28 10:48:35;;;;;;;1.13;0.93;;;;;;;6.58;64.47;96712.19;5100793;28;20455;-77
2020/12/28 10:51:01;;;;;;;1.17;0.93;;;;;;;6.14;65.99;96713.50;5096538;28;20478;-75
2020/12/28 10:53:28;;;;;;;0.87;0.70;;;;;;;5.61;69.04;96729.19;5097843;28;20435;-74
2020/12/28 10:55:54;;;;;;;1.20;0.60;;;;;;;6.35;66.65;96741.75;5099201;28;20486;-76
2020/12/28 10:58:21;;;;;;;0.60;0.60;;;;;;;7.02;63.81;96744.47;5098908;28;20443;-76
2020/12/28 11:00:51;;;;;;;1.47;0.60;;;;;;;6.92;62.99;96739.56;5098072;28;20487;-77
2020/12/28 11:03:17;;;;;;;0.87;0.73;;;;;;;7.80;60.86;96740.28;5100023;28;20494;-77
2020/12/28 11:05:44;;;;;;;0.90;0.80;;;;;;;6.92;63.15;96752.03;5097424;28;20499;-76
2020/12/28 11:08:10;;;;;;;0.97;0.80;;;;;;;7.21;63.38;96761.44;5101555;28;20450;-76
2020/12/28 11:10:37;;;;;;;0.93;0.83;;;;;;;7.24;63.16;96750.41;5099329;28;20549;-74
2020/12/28 11:13:03;;;;;;;0.87;0.87;;;;;;;6.68;65.97;96750.78;5102016;28;20474;-77
2020/12/28 11:15:29;;;;;;;1.00;0.70;;;;;;;7.32;62.88;96752.03;5099256;28;20470;-77
2020/12/28 11:17:55;;;;;;;0.80;0.80;;;;;;;7.19;63.00;96752.03;5101842;28;20439;-77
2020/12/28 11:20:22;;;;;;;0.87;0.87;;;;;;;6.52;64.90;96736.88;5098451;28;20459;-74
2020/12/28 11:22:49;;;;;;;1.63;1.00;;;;;;;6.88;64.55;96750.81;5100820;28;20477;-75
2020/12/28 11:25:16;;;;;;;1.27;1.17;;;;;;;6.69;65.64;96750.56;5096924;28;20486;-75
2020/12/28 11:27:43;;;;;;;1.20;0.70;;;;;;;6.51;65.37;96739.72;5101365;28;20447;-72
2020/12/28 11:30:09;;;;;;;1.30;0.97;;;;;;;5.70;66.73;96740.44;5081952;28;20470;-74
2020/12/28 11:32:36;;;;;;;1.57;0.70;;;;;;;5.56;67.30;96752.81;5099273;28;20469;-75
2020/12/28 11:35:02;;;;;;;1.33;0.83;;;;;;;5.47;68.75;96742.34;5098285;28;20456;-72
2020/12/28 11:37:31;;;;;;;2.70;1.30;;;;;;;5.42;69.06;96733.34;5081457;28;20498;-74
2020/12/28 11:39:57;;;;;;;0.80;0.80;;;;;;;5.13;68.84;96748.44;5092581;28;20461;-72